sensor_id;sensor_type;location;lat;lon;timestamp;temperature;humidity
2577;DHT22;1298;51.252;6.802;2022-11-14T00:00:42;5.50;99.90
2577;DHT22;1298;51.252;6.802;2022-11-14T00:03:27;5.50;99.90
2577;DHT22;1298;51.252;6.802;2022-11-14T00:06:14;5.50;99.90
2577;DHT22;1298;51.252;6.802;2022-11-14T00:08:59;5.60;99.90
2577;DHT22;1298;51.252;6.802;2022-11-14T00:11:44;5.50;99.90
2577;DHT22;1298;51.252;6.802;2022-11-14T00:14:29;5.40;99.90
2577;DHT22;1298;51.252;6.802;2022-11-14T00:17:14;5.30;99.90
2577;DHT22;1298;51.252;6.802;2022-11-14T00:19:59;5.30;99.90
2577;DHT22;1298;51.252;6.802;2022-11-14T00:22:46;5.20;99.90
2577;DHT22;1298;51.252;6.802;2022-11-14T00:25:31;5.20;99.90
2577;DHT22;1298;51.252;6.802;2022-11-14T00:28:16;5.20;99.90
2577;DHT22;1298;51.252;6.802;2022-11-14T00:31:01;5.20;99.90
2577;DHT22;1298;51.252;6.802;2022-11-14T00:33:46;5.20;99.90
2577;DHT22;1298;51.252;6.802;2022-11-14T00:36:32;5.20;99.90
2577;DHT22;1298;51.252;6.802;2022-11-14T00:39:19;5.10;99.90
2577;DHT22;1298;51.252;6.802;2022-11-14T00:42:04;5.10;99.90
2577;DHT22;1298;51.252;6.802;2022-11-14T00:44:49;5.10;99.90
2577;DHT22;1298;51.252;6.802;2022-11-14T00:47:35;5.00;99.90
2577;DHT22;1298;51.252;6.802;2022-11-14T00:50:20;5.10;99.90
2577;DHT22;1298;51.252;6.802;2022-11-14T00:53:05;5.10;99.90
2577;DHT22;1298;51.252;6.802;2022-11-14T00:55:52;5.20;99.90
2577;DHT22;1298;51.252;6.802;2022-11-14T00:58:37;5.20;99.90
2577;DHT22;1298;51.252;6.802;2022-11-14T01:01:22;5.20;99.90
2577;DHT22;1298;51.252;6.802;2022-11-14T01:04:07;5.20;99.90
2577;DHT22;1298;51.252;6.802;2022-11-14T01:06:53;5.20;99.90
2577;DHT22;1298;51.252;6.802;2022-11-14T01:09:38;5.20;99.90
2577;DHT22;1298;51.252;6.802;2022-11-14T01:12:24;5.20;99.90
2577;DHT22;1298;51.252;6.802;2022-11-14T01:15:10;5.20;99.90
2577;DHT22;1298;51.252;6.802;2022-11-14T01:17:55;5.10;99.90
2577;DHT22;1298;51.252;6.802;2022-11-14T01:20:41;5.00;99.90
2577;DHT22;1298;51.252;6.802;2022-11-14T01:23:26;5.00;99.90
2577;DHT22;1298;51.252;6.802;2022-11-14T01:26:12;4.90;99.90
2577;DHT22;1298;51.252;6.802;2022-11-14T01:28:59;4.80;99.90
2577;DHT22;1298;51.252;6.802;2022-11-14T01:31:44;4.80;99.90
2577;DHT22;1298;51.252;6.802;2022-11-14T01:34:29;4.80;99.90
2577;DHT22;1298;51.252;6.802;2022-11-14T01:37:14;4.80;99.90
2577;DHT22;1298;51.252;6.802;2022-11-14T01:39:59;4.90;99.90
2577;DHT22;1298;51.252;6.802;2022-11-14T01:45:50;5.00;99.90
2577;DHT22;1298;51.252;6.802;2022-11-14T01:48:37;5.00;99.90
2577;DHT22;1298;51.252;6.802;2022-11-14T01:51:25;5.00;99.90
2577;DHT22;1298;51.252;6.802;2022-11-14T01:54:12;5.00;99.90
2577;DHT22;1298;51.252;6.802;2022-11-14T01:57:01;4.90;99.90
2577;DHT22;1298;51.252;6.802;2022-11-14T01:59:48;5.00;99.90
2577;DHT22;1298;51.252;6.802;2022-11-14T02:02:35;4.90;99.90
2577;DHT22;1298;51.252;6.802;2022-11-14T02:05:21;4.90;99.90
2577;DHT22;1298;51.252;6.802;2022-11-14T02:08:07;4.90;99.90
2577;DHT22;1298;51.252;6.802;2022-11-14T02:10:55;4.90;99.90
2577;DHT22;1298;51.252;6.802;2022-11-14T02:13:40;4.90;99.90
2577;DHT22;1298;51.252;6.802;2022-11-14T02:16:25;4.90;99.90
2577;DHT22;1298;51.252;6.802;2022-11-14T02:19:14;5.00;99.90
2577;DHT22;1298;51.252;6.802;2022-11-14T02:22:00;5.00;99.90
2577;DHT22;1298;51.252;6.802;2022-11-14T02:24:45;5.00;99.90
2577;DHT22;1298;51.252;6.802;2022-11-14T02:27:30;5.00;99.90
2577;DHT22;1298;51.252;6.802;2022-11-14T02:30:18;5.00;99.90
2577;DHT22;1298;51.252;6.802;2022-11-14T02:33:04;5.10;99.90
2577;DHT22;1298;51.252;6.802;2022-11-14T02:35:49;5.10;99.90
2577;DHT22;1298;51.252;6.802;2022-11-14T02:38:35;5.10;99.90
2577;DHT22;1298;51.252;6.802;2022-11-14T02:41:20;5.10;99.90
2577;DHT22;1298;51.252;6.802;2022-11-14T02:44:05;5.20;99.90
2577;DHT22;1298;51.252;6.802;2022-11-14T02:46:50;5.20;99.90
2577;DHT22;1298;51.252;6.802;2022-11-14T02:49:36;5.20;99.90
2577;DHT22;1298;51.252;6.802;2022-11-14T02:52:21;5.20;99.90
2577;DHT22;1298;51.252;6.802;2022-11-14T02:55:08;5.20;99.90
2577;DHT22;1298;51.252;6.802;2022-11-14T02:57:53;5.20;99.90
2577;DHT22;1298;51.252;6.802;2022-11-14T03:00:38;5.20;99.90
2577;DHT22;1298;51.252;6.802;2022-11-14T03:03:24;5.20;99.90
2577;DHT22;1298;51.252;6.802;2022-11-14T03:06:09;5.20;99.90
2577;DHT22;1298;51.252;6.802;2022-11-14T03:08:54;5.20;99.90
2577;DHT22;1298;51.252;6.802;2022-11-14T03:11:41;5.20;99.90
2577;DHT22;1298;51.252;6.802;2022-11-14T03:14:26;5.30;99.90
2577;DHT22;1298;51.252;6.802;2022-11-14T03:17:13;5.30;99.90
2577;DHT22;1298;51.252;6.802;2022-11-14T03:19:58;5.40;99.90
2577;DHT22;1298;51.252;6.802;2022-11-14T03:22:44;5.30;99.90
2577;DHT22;1298;51.252;6.802;2022-11-14T03:25:29;5.30;99.90
2577;DHT22;1298;51.252;6.802;2022-11-14T03:28:16;5.20;99.90
2577;DHT22;1298;51.252;6.802;2022-11-14T03:31:01;5.20;99.90
2577;DHT22;1298;51.252;6.802;2022-11-14T03:33:47;5.20;99.90
2577;DHT22;1298;51.252;6.802;2022-11-14T03:36:32;5.20;99.90
2577;DHT22;1298;51.252;6.802;2022-11-14T03:39:18;5.20;99.90
2577;DHT22;1298;51.252;6.802;2022-11-14T03:42:04;5.30;99.90
2577;DHT22;1298;51.252;6.802;2022-11-14T03:44:50;5.40;99.90
2577;DHT22;1298;51.252;6.802;2022-11-14T03:47:35;5.50;99.90
2577;DHT22;1298;51.252;6.802;2022-11-14T03:50:21;5.50;99.90
2577;DHT22;1298;51.252;6.802;2022-11-14T03:53:06;5.50;99.90
2577;DHT22;1298;51.252;6.802;2022-11-14T03:55:51;5.50;99.90
2577;DHT22;1298;51.252;6.802;2022-11-14T03:58:37;5.60;99.90
2577;DHT22;1298;51.252;6.802;2022-11-14T04:01:23;5.60;99.90
2577;DHT22;1298;51.252;6.802;2022-11-14T04:04:12;5.60;99.90
2577;DHT22;1298;51.252;6.802;2022-11-14T04:06:57;5.70;99.90
2577;DHT22;1298;51.252;6.802;2022-11-14T04:09:42;5.70;99.90
2577;DHT22;1298;51.252;6.802;2022-11-14T04:12:29;5.70;99.90
2577;DHT22;1298;51.252;6.802;2022-11-14T04:15:14;5.80;99.90
2577;DHT22;1298;51.252;6.802;2022-11-14T04:18:01;5.80;99.90
2577;DHT22;1298;51.252;6.802;2022-11-14T04:20:46;5.80;99.90
2577;DHT22;1298;51.252;6.802;2022-11-14T04:23:31;5.90;99.90
2577;DHT22;1298;51.252;6.802;2022-11-14T04:26:17;5.90;99.90
2577;DHT22;1298;51.252;6.802;2022-11-14T04:29:02;5.90;99.90
2577;DHT22;1298;51.252;6.802;2022-11-14T04:31:47;5.90;99.90
2577;DHT22;1298;51.252;6.802;2022-11-14T04:34:34;5.90;99.90
2577;DHT22;1298;51.252;6.802;2022-11-14T04:37:19;5.90;99.90
2577;DHT22;1298;51.252;6.802;2022-11-14T04:40:04;5.90;99.90
2577;DHT22;1298;51.252;6.802;2022-11-14T04:42:49;5.80;99.90
2577;DHT22;1298;51.252;6.802;2022-11-14T04:45:34;5.80;99.90
2577;DHT22;1298;51.252;6.802;2022-11-14T04:48:19;5.80;99.90
2577;DHT22;1298;51.252;6.802;2022-11-14T04:51:06;5.90;99.90
2577;DHT22;1298;51.252;6.802;2022-11-14T04:53:51;5.90;99.90
2577;DHT22;1298;51.252;6.802;2022-11-14T04:56:36;5.80;99.90
2577;DHT22;1298;51.252;6.802;2022-11-14T04:59:22;5.70;99.90
2577;DHT22;1298;51.252;6.802;2022-11-14T05:02:07;5.70;99.90
2577;DHT22;1298;51.252;6.802;2022-11-14T05:04:52;5.60;99.90
2577;DHT22;1298;51.252;6.802;2022-11-14T05:07:38;5.50;99.90
2577;DHT22;1298;51.252;6.802;2022-11-14T05:10:23;5.40;99.90
2577;DHT22;1298;51.252;6.802;2022-11-14T05:13:08;5.30;99.90
2577;DHT22;1298;51.252;6.802;2022-11-14T05:15:56;5.30;99.90
2577;DHT22;1298;51.252;6.802;2022-11-14T05:18:42;5.30;99.90
2577;DHT22;1298;51.252;6.802;2022-11-14T05:21:27;5.30;99.90
2577;DHT22;1298;51.252;6.802;2022-11-14T05:24:13;5.40;99.90
2577;DHT22;1298;51.252;6.802;2022-11-14T05:26:59;5.50;99.90
2577;DHT22;1298;51.252;6.802;2022-11-14T05:29:44;5.60;99.90
2577;DHT22;1298;51.252;6.802;2022-11-14T05:32:29;5.80;99.90
2577;DHT22;1298;51.252;6.802;2022-11-14T05:35:14;5.80;99.90
2577;DHT22;1298;51.252;6.802;2022-11-14T05:37:59;5.80;99.90
2577;DHT22;1298;51.252;6.802;2022-11-14T05:40:47;5.80;99.90
2577;DHT22;1298;51.252;6.802;2022-11-14T05:43:32;5.80;99.90
2577;DHT22;1298;51.252;6.802;2022-11-14T05:46:17;5.80;99.90
2577;DHT22;1298;51.252;6.802;2022-11-14T05:49:02;5.90;99.90
2577;DHT22;1298;51.252;6.802;2022-11-14T05:51:47;5.90;99.90
2577;DHT22;1298;51.252;6.802;2022-11-14T05:54:32;5.80;99.90
2577;DHT22;1298;51.252;6.802;2022-11-14T05:57:19;5.80;99.90
2577;DHT22;1298;51.252;6.802;2022-11-14T06:00:04;5.80;99.90
2577;DHT22;1298;51.252;6.802;2022-11-14T06:02:50;5.70;99.90
2577;DHT22;1298;51.252;6.802;2022-11-14T06:05:36;5.60;99.90
2577;DHT22;1298;51.252;6.802;2022-11-14T06:08:21;5.50;99.90
2577;DHT22;1298;51.252;6.802;2022-11-14T06:11:07;5.50;99.90
2577;DHT22;1298;51.252;6.802;2022-11-14T06:13:54;5.40;99.90
2577;DHT22;1298;51.252;6.802;2022-11-14T06:16:39;5.40;99.90
2577;DHT22;1298;51.252;6.802;2022-11-14T06:19:24;5.40;99.90
2577;DHT22;1298;51.252;6.802;2022-11-14T06:22:09;5.40;99.90
2577;DHT22;1298;51.252;6.802;2022-11-14T06:24:54;5.50;99.90
2577;DHT22;1298;51.252;6.802;2022-11-14T06:27:39;5.50;99.90
2577;DHT22;1298;51.252;6.802;2022-11-14T06:30:26;5.40;99.90
2577;DHT22;1298;51.252;6.802;2022-11-14T06:33:11;5.40;99.90
2577;DHT22;1298;51.252;6.802;2022-11-14T06:35:56;5.50;99.90
2577;DHT22;1298;51.252;6.802;2022-11-14T06:38:42;5.50;99.90
2577;DHT22;1298;51.252;6.802;2022-11-14T06:41:28;5.60;99.90
2577;DHT22;1298;51.252;6.802;2022-11-14T06:44:13;5.60;99.90
2577;DHT22;1298;51.252;6.802;2022-11-14T06:47:00;5.70;99.90
2577;DHT22;1298;51.252;6.802;2022-11-14T06:49:45;5.80;99.90
2577;DHT22;1298;51.252;6.802;2022-11-14T06:52:30;5.90;99.90
2577;DHT22;1298;51.252;6.802;2022-11-14T06:55:15;5.90;99.90
2577;DHT22;1298;51.252;6.802;2022-11-14T06:58:01;6.00;99.90
2577;DHT22;1298;51.252;6.802;2022-11-14T07:00:46;6.00;99.90
2577;DHT22;1298;51.252;6.802;2022-11-14T07:03:34;6.00;99.90
2577;DHT22;1298;51.252;6.802;2022-11-14T07:06:20;6.10;99.90
2577;DHT22;1298;51.252;6.802;2022-11-14T07:09:08;6.10;99.90
2577;DHT22;1298;51.252;6.802;2022-11-14T07:11:54;6.10;99.90
2577;DHT22;1298;51.252;6.802;2022-11-14T07:14:39;6.20;99.90
2577;DHT22;1298;51.252;6.802;2022-11-14T07:17:24;6.20;99.90
2577;DHT22;1298;51.252;6.802;2022-11-14T07:20:11;6.30;99.90
2577;DHT22;1298;51.252;6.802;2022-11-14T07:22:57;6.40;99.90
2577;DHT22;1298;51.252;6.802;2022-11-14T07:25:43;6.40;99.90
2577;DHT22;1298;51.252;6.802;2022-11-14T07:28:28;6.40;99.90
2577;DHT22;1298;51.252;6.802;2022-11-14T07:31:16;6.50;99.90
2577;DHT22;1298;51.252;6.802;2022-11-14T07:34:05;6.60;99.90
2577;DHT22;1298;51.252;6.802;2022-11-14T07:36:52;6.70;99.90
2577;DHT22;1298;51.252;6.802;2022-11-14T07:39:37;6.70;99.90
2577;DHT22;1298;51.252;6.802;2022-11-14T07:42:22;6.70;99.90
2577;DHT22;1298;51.252;6.802;2022-11-14T07:45:08;6.80;99.90
2577;DHT22;1298;51.252;6.802;2022-11-14T07:47:54;6.80;99.90
2577;DHT22;1298;51.252;6.802;2022-11-14T07:50:39;6.80;99.90
2577;DHT22;1298;51.252;6.802;2022-11-14T07:53:26;6.90;99.90
2577;DHT22;1298;51.252;6.802;2022-11-14T07:56:11;6.90;99.90
2577;DHT22;1298;51.252;6.802;2022-11-14T07:58:57;6.90;99.90
2577;DHT22;1298;51.252;6.802;2022-11-14T08:01:42;6.90;99.90
2577;DHT22;1298;51.252;6.802;2022-11-14T08:04:27;6.90;99.90
2577;DHT22;1298;51.252;6.802;2022-11-14T08:07:12;6.80;99.90
2577;DHT22;1298;51.252;6.802;2022-11-14T08:09:59;6.90;99.90
2577;DHT22;1298;51.252;6.802;2022-11-14T08:12:44;7.00;99.90
2577;DHT22;1298;51.252;6.802;2022-11-14T08:15:30;7.00;99.90
2577;DHT22;1298;51.252;6.802;2022-11-14T08:18:16;7.00;99.90
2577;DHT22;1298;51.252;6.802;2022-11-14T08:21:02;7.10;99.90
2577;DHT22;1298;51.252;6.802;2022-11-14T08:23:47;7.10;99.90
2577;DHT22;1298;51.252;6.802;2022-11-14T08:26:34;7.30;99.90
2577;DHT22;1298;51.252;6.802;2022-11-14T08:29:20;7.40;99.90
2577;DHT22;1298;51.252;6.802;2022-11-14T08:32:05;7.50;99.90
2577;DHT22;1298;51.252;6.802;2022-11-14T08:34:51;7.50;99.90
2577;DHT22;1298;51.252;6.802;2022-11-14T08:37:36;7.60;99.90
2577;DHT22;1298;51.252;6.802;2022-11-14T08:40:21;7.70;99.90
2577;DHT22;1298;51.252;6.802;2022-11-14T08:43:08;7.70;99.90
2577;DHT22;1298;51.252;6.802;2022-11-14T08:45:55;7.80;99.90
2577;DHT22;1298;51.252;6.802;2022-11-14T08:48:41;7.80;99.90
2577;DHT22;1298;51.252;6.802;2022-11-14T08:51:26;7.80;99.90
2577;DHT22;1298;51.252;6.802;2022-11-14T08:54:11;7.80;99.90
2577;DHT22;1298;51.252;6.802;2022-11-14T08:56:57;7.90;99.90
2577;DHT22;1298;51.252;6.802;2022-11-14T08:59:43;7.90;99.90
2577;DHT22;1298;51.252;6.802;2022-11-14T09:02:29;7.90;99.90
2577;DHT22;1298;51.252;6.802;2022-11-14T09:05:14;8.00;99.90
2577;DHT22;1298;51.252;6.802;2022-11-14T09:08:00;8.00;99.90
2577;DHT22;1298;51.252;6.802;2022-11-14T09:10:45;8.10;99.90
2577;DHT22;1298;51.252;6.802;2022-11-14T09:13:30;8.10;99.90
2577;DHT22;1298;51.252;6.802;2022-11-14T09:16:17;8.10;99.90
2577;DHT22;1298;51.252;6.802;2022-11-14T09:19:02;8.10;99.90
2577;DHT22;1298;51.252;6.802;2022-11-14T09:21:48;8.00;99.90
2577;DHT22;1298;51.252;6.802;2022-11-14T09:24:33;8.00;99.90
2577;DHT22;1298;51.252;6.802;2022-11-14T09:27:18;8.00;99.90
2577;DHT22;1298;51.252;6.802;2022-11-14T09:30:04;8.00;99.90
2577;DHT22;1298;51.252;6.802;2022-11-14T09:32:50;8.00;99.90
2577;DHT22;1298;51.252;6.802;2022-11-14T09:35:36;8.10;99.90
2577;DHT22;1298;51.252;6.802;2022-11-14T09:38:21;8.10;99.90
2577;DHT22;1298;51.252;6.802;2022-11-14T09:41:23;8.10;99.90
2577;DHT22;1298;51.252;6.802;2022-11-14T09:44:25;8.20;99.90
2577;DHT22;1298;51.252;6.802;2022-11-14T09:47:13;8.10;99.90
2577;DHT22;1298;51.252;6.802;2022-11-14T09:50:04;8.10;99.90
2577;DHT22;1298;51.252;6.802;2022-11-14T09:52:51;8.20;99.90
2577;DHT22;1298;51.252;6.802;2022-11-14T09:55:38;8.10;99.90
2577;DHT22;1298;51.252;6.802;2022-11-14T09:58:25;8.20;99.90
2577;DHT22;1298;51.252;6.802;2022-11-14T10:01:11;8.20;99.90
2577;DHT22;1298;51.252;6.802;2022-11-14T10:04:01;8.20;99.90
2577;DHT22;1298;51.252;6.802;2022-11-14T10:06:50;8.30;99.90
2577;DHT22;1298;51.252;6.802;2022-11-14T10:09:43;8.30;99.90
2577;DHT22;1298;51.252;6.802;2022-11-14T10:12:34;8.30;99.90
2577;DHT22;1298;51.252;6.802;2022-11-14T10:15:22;8.30;99.90
2577;DHT22;1298;51.252;6.802;2022-11-14T10:18:16;8.40;99.90
2577;DHT22;1298;51.252;6.802;2022-11-14T10:21:05;8.40;99.90
2577;DHT22;1298;51.252;6.802;2022-11-14T10:23:58;8.40;99.90
2577;DHT22;1298;51.252;6.802;2022-11-14T10:26:49;8.50;99.90
2577;DHT22;1298;51.252;6.802;2022-11-14T10:29:39;8.40;99.90
2577;DHT22;1298;51.252;6.802;2022-11-14T10:32:33;8.50;99.90
2577;DHT22;1298;51.252;6.802;2022-11-14T10:35:22;8.60;99.90
2577;DHT22;1298;51.252;6.802;2022-11-14T10:38:09;8.70;99.90
2577;DHT22;1298;51.252;6.802;2022-11-14T10:40:58;8.70;99.90
2577;DHT22;1298;51.252;6.802;2022-11-14T10:43:45;8.80;99.90
2577;DHT22;1298;51.252;6.802;2022-11-14T10:46:31;8.90;99.90
2577;DHT22;1298;51.252;6.802;2022-11-14T10:49:18;9.00;99.90
2577;DHT22;1298;51.252;6.802;2022-11-14T10:52:05;9.00;99.90
2577;DHT22;1298;51.252;6.802;2022-11-14T10:54:52;9.00;99.90
2577;DHT22;1298;51.252;6.802;2022-11-14T10:57:42;9.10;99.90
2577;DHT22;1298;51.252;6.802;2022-11-14T11:00:28;9.10;99.90
2577;DHT22;1298;51.252;6.802;2022-11-14T11:03:14;9.10;99.90
2577;DHT22;1298;51.252;6.802;2022-11-14T11:05:59;9.10;99.90
2577;DHT22;1298;51.252;6.802;2022-11-14T11:08:46;9.20;99.90
2577;DHT22;1298;51.252;6.802;2022-11-14T11:11:54;9.20;99.90
2577;DHT22;1298;51.252;6.802;2022-11-14T11:14:41;9.10;99.90
2577;DHT22;1298;51.252;6.802;2022-11-14T11:17:26;9.20;99.90
2577;DHT22;1298;51.252;6.802;2022-11-14T11:20:26;9.20;99.90
2577;DHT22;1298;51.252;6.802;2022-11-14T11:23:16;9.20;99.90
2577;DHT22;1298;51.252;6.802;2022-11-14T11:26:02;9.30;99.90
2577;DHT22;1298;51.252;6.802;2022-11-14T11:29:02;9.50;99.90
2577;DHT22;1298;51.252;6.802;2022-11-14T11:31:50;9.50;99.90
2577;DHT22;1298;51.252;6.802;2022-11-14T11:34:35;9.70;99.90
2577;DHT22;1298;51.252;6.802;2022-11-14T11:37:22;9.80;99.90
2577;DHT22;1298;51.252;6.802;2022-11-14T11:40:09;9.90;99.90
2577;DHT22;1298;51.252;6.802;2022-11-14T11:42:57;10.00;99.90
2577;DHT22;1298;51.252;6.802;2022-11-14T11:45:43;10.20;99.90
2577;DHT22;1298;51.252;6.802;2022-11-14T11:48:33;10.20;99.90
2577;DHT22;1298;51.252;6.802;2022-11-14T11:51:18;10.20;99.90
2577;DHT22;1298;51.252;6.802;2022-11-14T11:54:09;10.10;99.90
2577;DHT22;1298;51.252;6.802;2022-11-14T11:56:58;10.00;99.90
2577;DHT22;1298;51.252;6.802;2022-11-14T11:59:45;9.90;99.90
2577;DHT22;1298;51.252;6.802;2022-11-14T12:02:39;9.80;99.90
2577;DHT22;1298;51.252;6.802;2022-11-14T12:05:30;9.80;99.90
2577;DHT22;1298;51.252;6.802;2022-11-14T12:08:18;9.90;99.90
2577;DHT22;1298;51.252;6.802;2022-11-14T12:11:08;10.10;99.90
2577;DHT22;1298;51.252;6.802;2022-11-14T12:14:15;10.10;99.90
2577;DHT22;1298;51.252;6.802;2022-11-14T12:17:16;10.20;99.90
2577;DHT22;1298;51.252;6.802;2022-11-14T12:20:13;10.20;99.90
2577;DHT22;1298;51.252;6.802;2022-11-14T12:23:12;10.30;99.90
2577;DHT22;1298;51.252;6.802;2022-11-14T12:26:05;10.30;99.90
2577;DHT22;1298;51.252;6.802;2022-11-14T12:29:02;10.40;99.90
2577;DHT22;1298;51.252;6.802;2022-11-14T12:31:52;10.40;99.90
2577;DHT22;1298;51.252;6.802;2022-11-14T12:34:40;10.50;99.90
2577;DHT22;1298;51.252;6.802;2022-11-14T12:37:30;10.60;99.90
2577;DHT22;1298;51.252;6.802;2022-11-14T12:40:23;10.80;99.90
2577;DHT22;1298;51.252;6.802;2022-11-14T12:43:23;10.90;99.90
2577;DHT22;1298;51.252;6.802;2022-11-14T12:46:11;11.00;99.90
2577;DHT22;1298;51.252;6.802;2022-11-14T12:48:56;10.90;99.90
2577;DHT22;1298;51.252;6.802;2022-11-14T12:51:49;10.70;99.90
2577;DHT22;1298;51.252;6.802;2022-11-14T12:54:41;10.60;99.90
2577;DHT22;1298;51.252;6.802;2022-11-14T12:57:29;10.60;99.90
2577;DHT22;1298;51.252;6.802;2022-11-14T13:00:36;10.60;99.90
2577;DHT22;1298;51.252;6.802;2022-11-14T13:03:25;10.60;99.90
2577;DHT22;1298;51.252;6.802;2022-11-14T13:06:16;10.50;99.90
2577;DHT22;1298;51.252;6.802;2022-11-14T13:09:11;10.50;99.90
2577;DHT22;1298;51.252;6.802;2022-11-14T13:12:22;10.50;99.90
2577;DHT22;1298;51.252;6.802;2022-11-14T13:15:29;10.40;99.90
2577;DHT22;1298;51.252;6.802;2022-11-14T13:18:32;10.40;99.90
2577;DHT22;1298;51.252;6.802;2022-11-14T13:21:36;10.40;99.90
2577;DHT22;1298;51.252;6.802;2022-11-14T13:27:32;10.30;99.90
2577;DHT22;1298;51.252;6.802;2022-11-14T13:30:17;10.30;99.90
2577;DHT22;1298;51.252;6.802;2022-11-14T13:33:04;10.20;99.90
2577;DHT22;1298;51.252;6.802;2022-11-14T13:35:51;10.10;99.90
2577;DHT22;1298;51.252;6.802;2022-11-14T13:41:59;10.00;99.90
2577;DHT22;1298;51.252;6.802;2022-11-14T13:45:03;9.90;99.90
2577;DHT22;1298;51.252;6.802;2022-11-14T13:51:04;9.90;99.90
2577;DHT22;1298;51.252;6.802;2022-11-14T13:53:50;9.90;99.90
2577;DHT22;1298;51.252;6.802;2022-11-14T13:56:37;9.90;99.90
2577;DHT22;1298;51.252;6.802;2022-11-14T13:59:32;9.80;99.90
2577;DHT22;1298;51.252;6.802;2022-11-14T14:05:39;9.80;99.90
2577;DHT22;1298;51.252;6.802;2022-11-14T14:14:35;9.80;99.90
2577;DHT22;1298;51.252;6.802;2022-11-14T14:17:25;9.80;99.90
2577;DHT22;1298;51.252;6.802;2022-11-14T14:20:20;9.80;99.90
2577;DHT22;1298;51.252;6.802;2022-11-14T14:23:11;9.90;99.90
2577;DHT22;1298;51.252;6.802;2022-11-14T14:26:02;9.80;99.90
2577;DHT22;1298;51.252;6.802;2022-11-14T14:28:53;9.90;99.90
2577;DHT22;1298;51.252;6.802;2022-11-14T14:31:44;9.90;99.90
2577;DHT22;1298;51.252;6.802;2022-11-14T14:34:30;9.90;99.90
2577;DHT22;1298;51.252;6.802;2022-11-14T14:37:16;9.90;99.90
2577;DHT22;1298;51.252;6.802;2022-11-14T14:40:04;9.90;99.90
2577;DHT22;1298;51.252;6.802;2022-11-14T14:42:49;9.90;99.90
2577;DHT22;1298;51.252;6.802;2022-11-14T14:45:36;9.90;99.90
2577;DHT22;1298;51.252;6.802;2022-11-14T14:48:30;9.90;99.90
2577;DHT22;1298;51.252;6.802;2022-11-14T14:51:27;9.90;99.90
2577;DHT22;1298;51.252;6.802;2022-11-14T14:54:20;9.90;99.90
2577;DHT22;1298;51.252;6.802;2022-11-14T14:57:15;9.90;99.90
2577;DHT22;1298;51.252;6.802;2022-11-14T15:00:03;9.80;99.90
2577;DHT22;1298;51.252;6.802;2022-11-14T15:02:50;9.80;99.90
2577;DHT22;1298;51.252;6.802;2022-11-14T15:05:38;9.80;99.90
2577;DHT22;1298;51.252;6.802;2022-11-14T15:08:23;9.70;99.90
2577;DHT22;1298;51.252;6.802;2022-11-14T15:11:08;9.70;99.90
2577;DHT22;1298;51.252;6.802;2022-11-14T15:13:55;9.70;99.90
2577;DHT22;1298;51.252;6.802;2022-11-14T15:16:41;9.70;99.90
2577;DHT22;1298;51.252;6.802;2022-11-14T15:19:29;9.70;99.90
2577;DHT22;1298;51.252;6.802;2022-11-14T15:22:21;9.70;99.90
2577;DHT22;1298;51.252;6.802;2022-11-14T15:25:17;9.70;99.90
2577;DHT22;1298;51.252;6.802;2022-11-14T15:28:03;9.70;99.90
2577;DHT22;1298;51.252;6.802;2022-11-14T15:30:57;9.70;99.90
2577;DHT22;1298;51.252;6.802;2022-11-14T15:33:43;9.70;99.90
2577;DHT22;1298;51.252;6.802;2022-11-14T15:36:28;9.70;99.90
2577;DHT22;1298;51.252;6.802;2022-11-14T15:39:22;9.60;99.90
2577;DHT22;1298;51.252;6.802;2022-11-14T15:42:13;9.60;99.90
2577;DHT22;1298;51.252;6.802;2022-11-14T15:44:58;9.60;99.90
2577;DHT22;1298;51.252;6.802;2022-11-14T15:47:43;9.60;99.90
2577;DHT22;1298;51.252;6.802;2022-11-14T15:50:29;9.60;99.90
2577;DHT22;1298;51.252;6.802;2022-11-14T15:53:16;9.60;99.90
2577;DHT22;1298;51.252;6.802;2022-11-14T15:56:03;9.60;99.90
2577;DHT22;1298;51.252;6.802;2022-11-14T15:58:48;9.60;99.90
2577;DHT22;1298;51.252;6.802;2022-11-14T16:01:34;9.60;99.90
2577;DHT22;1298;51.252;6.802;2022-11-14T16:04:20;9.60;99.90
2577;DHT22;1298;51.252;6.802;2022-11-14T16:07:08;9.60;99.90
2577;DHT22;1298;51.252;6.802;2022-11-14T16:09:54;9.60;99.90
2577;DHT22;1298;51.252;6.802;2022-11-14T16:12:41;9.60;99.90
2577;DHT22;1298;51.252;6.802;2022-11-14T16:15:26;9.50;99.90
2577;DHT22;1298;51.252;6.802;2022-11-14T16:18:11;9.50;99.90
2577;DHT22;1298;51.252;6.802;2022-11-14T16:20:56;9.50;99.90
2577;DHT22;1298;51.252;6.802;2022-11-14T16:23:42;9.40;99.90
2577;DHT22;1298;51.252;6.802;2022-11-14T16:26:28;9.40;99.90
2577;DHT22;1298;51.252;6.802;2022-11-14T16:29:15;9.40;99.90
2577;DHT22;1298;51.252;6.802;2022-11-14T16:32:00;9.40;99.90
2577;DHT22;1298;51.252;6.802;2022-11-14T16:34:46;9.50;99.90
2577;DHT22;1298;51.252;6.802;2022-11-14T16:37:31;9.40;99.90
2577;DHT22;1298;51.252;6.802;2022-11-14T16:40:17;9.40;99.90
2577;DHT22;1298;51.252;6.802;2022-11-14T16:43:04;9.40;99.90
2577;DHT22;1298;51.252;6.802;2022-11-14T16:45:50;9.40;99.90
2577;DHT22;1298;51.252;6.802;2022-11-14T16:48:36;9.40;99.90
2577;DHT22;1298;51.252;6.802;2022-11-14T16:51:21;9.40;99.90
2577;DHT22;1298;51.252;6.802;2022-11-14T16:54:06;9.40;99.90
2577;DHT22;1298;51.252;6.802;2022-11-14T16:56:51;9.40;99.90
2577;DHT22;1298;51.252;6.802;2022-11-14T16:59:36;9.40;99.90
2577;DHT22;1298;51.252;6.802;2022-11-14T17:02:23;9.40;99.90
2577;DHT22;1298;51.252;6.802;2022-11-14T17:05:08;9.50;99.90
2577;DHT22;1298;51.252;6.802;2022-11-14T17:07:54;9.60;99.90
2577;DHT22;1298;51.252;6.802;2022-11-14T17:10:40;9.50;99.90
2577;DHT22;1298;51.252;6.802;2022-11-14T17:13:25;9.50;99.90
2577;DHT22;1298;51.252;6.802;2022-11-14T17:16:13;9.50;99.90
2577;DHT22;1298;51.252;6.802;2022-11-14T17:19:00;9.40;99.90
2577;DHT22;1298;51.252;6.802;2022-11-14T17:21:46;9.40;99.90
2577;DHT22;1298;51.252;6.802;2022-11-14T17:24:31;9.40;99.90
2577;DHT22;1298;51.252;6.802;2022-11-14T17:27:17;9.40;99.90
2577;DHT22;1298;51.252;6.802;2022-11-14T17:30:02;9.40;99.90
2577;DHT22;1298;51.252;6.802;2022-11-14T17:32:48;9.40;99.90
2577;DHT22;1298;51.252;6.802;2022-11-14T17:35:34;9.50;99.90
2577;DHT22;1298;51.252;6.802;2022-11-14T17:38:20;9.50;99.90
2577;DHT22;1298;51.252;6.802;2022-11-14T17:41:05;9.50;99.90
2577;DHT22;1298;51.252;6.802;2022-11-14T17:43:50;9.50;99.90
2577;DHT22;1298;51.252;6.802;2022-11-14T17:46:36;9.50;99.90
2577;DHT22;1298;51.252;6.802;2022-11-14T17:49:21;9.40;99.90
2577;DHT22;1298;51.252;6.802;2022-11-14T17:52:10;9.40;99.90
2577;DHT22;1298;51.252;6.802;2022-11-14T17:54:55;9.40;99.90
2577;DHT22;1298;51.252;6.802;2022-11-14T17:57:40;9.40;99.90
2577;DHT22;1298;51.252;6.802;2022-11-14T18:00:25;9.40;99.90
2577;DHT22;1298;51.252;6.802;2022-11-14T18:03:10;9.40;99.90
2577;DHT22;1298;51.252;6.802;2022-11-14T18:06:03;9.40;99.90
2577;DHT22;1298;51.252;6.802;2022-11-14T18:08:50;9.40;99.90
2577;DHT22;1298;51.252;6.802;2022-11-14T18:11:35;9.40;99.90
2577;DHT22;1298;51.252;6.802;2022-11-14T18:14:21;9.40;99.90
2577;DHT22;1298;51.252;6.802;2022-11-14T18:17:06;9.30;99.90
2577;DHT22;1298;51.252;6.802;2022-11-14T18:19:51;9.30;99.90
2577;DHT22;1298;51.252;6.802;2022-11-14T18:22:39;9.30;99.90
2577;DHT22;1298;51.252;6.802;2022-11-14T18:25:26;9.30;99.90
2577;DHT22;1298;51.252;6.802;2022-11-14T18:28:12;9.30;99.90
2577;DHT22;1298;51.252;6.802;2022-11-14T18:30:58;9.30;99.90
2577;DHT22;1298;51.252;6.802;2022-11-14T18:33:46;9.30;99.90
2577;DHT22;1298;51.252;6.802;2022-11-14T18:36:31;9.30;99.90
2577;DHT22;1298;51.252;6.802;2022-11-14T18:39:17;9.30;99.90
2577;DHT22;1298;51.252;6.802;2022-11-14T18:42:04;9.30;99.90
2577;DHT22;1298;51.252;6.802;2022-11-14T18:44:49;9.30;99.90
2577;DHT22;1298;51.252;6.802;2022-11-14T18:47:35;9.30;99.90
2577;DHT22;1298;51.252;6.802;2022-11-14T18:50:20;9.30;99.90